Melcher Dallas, Iowa
Current Conditions -  °F | °C
As of 2:55 PM on Thursday 23 Oct 2014 (Local Time) from KOXV Reporting Station
Broken Clouds Broken Clouds  
Wind Chill: 63°   Ceiling: 1300
Heat Index: 63°   Visibility: 10mi
Dew Point: 57°   Wind: 9mph
Humidity: 82%   Direction: 210°SSW
Pressure: 30.01"   Gusts: NA
Location:  41.2269°N, 93.1611°W
Report Text: KOXV 231955Z AUTO 21008KT 10SM BKN013 BKN032 BKN039 17/14 A3001 RMK AO2
Loading
Personal Weather Stations






























Interactive Weather Map New forecast layout! Learn more

10-Day Weather Forecast

Advertisements
Track Severe Weather on mobile